Time;durP1;ratioP1;P1;durP2;ratioP2;P2;SDS_P1;SDS_P2;PMS_P1;PMS_P2;Temp;Humidity;BMP_temperature;BMP_pressure;BME280_temperature;BME280_humidity;BME280_pressure;Samples;Min_cycle;Max_cycle;Signal;HPM_P1;HPM_P2
2022/05/15 00:02:30;;;;;;;2.75;2.28;;;11.90;99.90;;;;;;6300185;22;20775;-94
2022/05/15 00:04:57;;;;;;;2.72;2.38;;;11.80;99.90;;;;;;6293487;22;20171;-94
2022/05/15 00:07:25;;;;;;;3.55;2.65;;;11.80;99.90;;;;;;6283418;22;20174;-94
2022/05/15 00:09:52;;;;;;;3.45;2.72;;;11.80;99.90;;;;;;6295415;22;20176;-95
2022/05/15 00:12:21;;;;;;;4.00;2.90;;;11.70;99.90;;;;;;6294566;22;20198;-93
2022/05/15 00:14:48;;;;;;;4.68;2.95;;;11.60;99.90;;;;;;6288235;22;20176;-93
2022/05/15 00:17:16;;;;;;;3.83;3.00;;;11.60;99.90;;;;;;6293598;22;20194;-93
2022/05/15 00:19:43;;;;;;;3.80;2.80;;;11.60;99.90;;;;;;6291945;22;20752;-93
2022/05/15 00:22:10;;;;;;;3.67;2.40;;;11.50;99.90;;;;;;6292110;22;20815;-94
2022/05/15 00:24:39;;;;;;;5.60;3.53;;;11.50;99.90;;;;;;6290467;22;20168;-93
2022/05/15 00:27:06;;;;;;;3.30;2.83;;;11.50;99.90;;;;;;6289750;22;20924;-93
2022/05/15 00:29:33;;;;;;;3.70;2.70;;;11.40;99.90;;;;;;6289975;22;20293;-93
2022/05/15 00:32:00;;;;;;;3.50;2.78;;;11.40;99.90;;;;;;6290069;22;20781;-94
2022/05/15 00:34:27;;;;;;;5.60;2.80;;;11.40;99.90;;;;;;6289442;22;20172;-94
2022/05/15 00:36:53;;;;;;;4.00;3.10;;;11.30;99.90;;;;;;6279981;22;20425;-94
2022/05/15 00:39:20;;;;;;;3.07;2.50;;;11.30;99.90;;;;;;6288661;22;20511;-94
2022/05/15 00:41:49;;;;;;;4.80;2.60;;;11.20;99.90;;;;;;6278951;22;20952;-93
2022/05/15 00:44:16;;;;;;;3.30;2.58;;;11.20;99.90;;;;;;6289645;22;20175;-93
2022/05/15 00:46:43;;;;;;;3.15;2.78;;;11.20;99.90;;;;;;6289352;22;20172;-93
2022/05/15 00:49:12;;;;;;;4.50;2.80;;;11.20;99.90;;;;;;6288716;22;20167;-94
2022/05/15 00:51:42;;;;;;;3.13;2.78;;;11.10;99.90;;;;;;6288641;22;20199;-93
2022/05/15 00:54:16;;;;;;;4.43;2.60;;;11.10;99.90;;;;;;6278518;22;20631;-94
2022/05/15 00:56:50;;;;;;;3.35;2.78;;;11.10;99.90;;;;;;6289235;22;20446;-93
2022/05/15 00:59:21;;;;;;;2.67;2.45;;;11.20;99.90;;;;;;6288464;22;20223;-93
2022/05/15 01:01:48;;;;;;;4.47;2.70;;;11.10;99.90;;;;;;6289362;22;20195;-93
2022/05/15 01:04:16;;;;;;;3.70;3.40;;;11.10;99.90;;;;;;6288975;22;20951;-94
2022/05/15 01:06:43;;;;;;;3.55;2.70;;;11.00;99.90;;;;;;6281243;22;20254;-94
2022/05/15 01:09:12;;;;;;;3.22;2.70;;;11.00;99.90;;;;;;6288890;22;20164;-94
2022/05/15 01:11:40;;;;;;;4.72;2.75;;;11.00;99.90;;;;;;6280424;22;20199;-93
2022/05/15 01:14:12;;;;;;;5.22;3.45;;;11.00;99.90;;;;;;6289106;22;20207;-93
2022/05/15 01:16:40;;;;;;;4.03;3.53;;;10.90;99.90;;;;;;6289956;22;20190;-93
2022/05/15 01:19:07;;;;;;;3.63;3.03;;;10.90;99.90;;;;;;6288866;22;20194;-93
2022/05/15 01:21:37;;;;;;;4.75;3.13;;;10.90;99.90;;;;;;6290528;22;20198;-94
2022/05/15 01:24:06;;;;;;;2.83;2.63;;;10.90;99.90;;;;;;6289644;22;20172;-93
2022/05/15 01:26:36;;;;;;;4.68;3.53;;;10.80;99.90;;;;;;6289515;22;20178;-93
2022/05/15 01:29:05;;;;;;;4.32;3.28;;;10.80;99.90;;;;;;6290789;22;20171;-94
2022/05/15 01:31:32;;;;;;;3.45;3.15;;;10.70;99.90;;;;;;6289812;22;20190;-94
2022/05/15 01:33:59;;;;;;;3.15;2.90;;;10.70;99.90;;;;;;6289040;22;20164;-93
2022/05/15 01:36:26;;;;;;;5.30;3.20;;;10.70;99.90;;;;;;6289378;22;20176;-94
2022/05/15 01:38:54;;;;;;;3.45;3.10;;;10.60;99.90;;;;;;6278445;22;20188;-93
2022/05/15 01:41:22;;;;;;;3.55;2.72;;;10.60;99.90;;;;;;6289764;22;20192;-93
2022/05/15 01:43:52;;;;;;;3.85;2.95;;;10.60;99.90;;;;;;6289480;22;20172;-94
2022/05/15 01:46:21;;;;;;;3.92;3.20;;;10.60;99.90;;;;;;6289393;22;20171;-93
2022/05/15 01:48:48;;;;;;;4.10;3.45;;;10.50;99.90;;;;;;6307614;22;20175;-94
2022/05/15 01:51:15;;;;;;;4.35;3.20;;;10.50;99.90;;;;;;6309051;22;20249;-94
2022/05/15 01:53:42;;;;;;;4.65;3.00;;;10.50;99.90;;;;;;6302292;22;20179;-94
2022/05/15 01:56:11;;;;;;;7.47;3.72;;;10.50;99.90;;;;;;6311827;22;20172;-94
2022/05/15 01:58:37;;;;;;;3.38;3.08;;;10.50;99.90;;;;;;6301919;22;20184;-94
2022/05/15 02:01:05;;;;;;;3.63;3.17;;;10.40;99.90;;;;;;6309133;22;20306;-94
2022/05/15 02:03:32;;;;;;;3.38;3.08;;;10.40;99.90;;;;;;6310529;22;20215;-94
2022/05/15 02:05:58;;;;;;;5.65;3.70;;;10.40;99.90;;;;;;6309510;22;20152;-94
2022/05/15 02:08:25;;;;;;;4.35;3.53;;;10.60;99.90;;;;;;6301730;22;20202;-93
2022/05/15 02:10:52;;;;;;;5.95;3.63;;;10.60;99.90;;;;;;6312419;22;20155;-95
2022/05/15 02:13:20;;;;;;;5.18;3.50;;;10.60;99.90;;;;;;6313444;22;20211;-95
2022/05/15 02:15:47;;;;;;;5.10;3.28;;;10.50;99.90;;;;;;6313014;22;20159;-94
2022/05/15 02:18:13;;;;;;;4.78;3.50;;;10.50;99.90;;;;;;6302702;22;20215;-94
2022/05/15 02:20:40;;;;;;;3.72;3.28;;;10.40;99.90;;;;;;6302081;22;20224;-94
2022/05/15 02:23:08;;;;;;;4.85;3.25;;;10.40;99.90;;;;;;6312068;22;20190;-93
2022/05/15 02:25:35;;;;;;;4.20;3.35;;;10.30;99.90;;;;;;6309265;22;20187;-94
2022/05/15 02:28:02;;;;;;;3.80;3.35;;;10.30;99.90;;;;;;6308230;22;20223;-94
2022/05/15 02:30:30;;;;;;;5.22;3.53;;;10.30;99.90;;;;;;6301048;22;20215;-95
2022/05/15 02:32:57;;;;;;;4.00;3.40;;;10.30;99.90;;;;;;6311573;22;20207;-94
2022/05/15 02:35:25;;;;;;;4.82;3.40;;;10.20;99.90;;;;;;6311738;22;20202;-94
2022/05/15 02:37:52;;;;;;;4.75;3.45;;;10.20;99.90;;;;;;6302820;22;20255;-95
2022/05/15 02:40:21;;;;;;;6.60;4.30;;;10.10;99.90;;;;;;6311497;22;20171;-93
2022/05/15 02:42:49;;;;;;;5.53;3.70;;;10.20;99.90;;;;;;6303908;22;20197;-93
2022/05/15 02:45:16;;;;;;;3.60;3.28;;;10.10;99.90;;;;;;6299428;22;20182;-93
2022/05/15 02:47:44;;;;;;;5.00;3.17;;;10.20;99.90;;;;;;6292655;22;20164;-94
2022/05/15 02:52:56;;;;;;;4.10;3.10;;;10.10;99.90;;;;;;6277866;22;20267;-94
2022/05/15 02:55:23;;;;;;;4.03;3.40;;;10.10;99.90;;;;;;6295400;22;20211;-94
2022/05/15 02:57:50;;;;;;;4.22;3.03;;;10.10;99.90;;;;;;6314632;22;20183;-95
2022/05/15 03:00:19;;;;;;;3.45;3.15;;;10.00;99.90;;;;;;6314184;22;20160;-95
2022/05/15 03:02:47;;;;;;;3.70;2.88;;;10.00;99.90;;;;;;6290897;22;20204;-70
2022/05/15 03:05:16;;;;;;;3.10;2.80;;;10.10;99.90;;;;;;6273633;22;20172;-71
2022/05/15 03:07:43;;;;;;;6.30;3.15;;;10.00;99.90;;;;;;6272898;22;20179;-71
2022/05/15 03:10:11;;;;;;;4.15;2.67;;;10.00;99.90;;;;;;6272727;22;20191;-71
2022/05/15 03:12:38;;;;;;;5.85;3.65;;;10.00;99.90;;;;;;6273278;22;20176;-71
2022/05/15 03:15:06;;;;;;;3.22;2.95;;;9.90;99.90;;;;;;6273177;22;20176;-71
2022/05/15 03:17:34;;;;;;;4.28;3.42;;;9.90;99.90;;;;;;6273396;22;20172;-71
2022/05/15 03:20:02;;;;;;;4.32;3.00;;;9.90;99.90;;;;;;6272195;22;20200;-71
2022/05/15 03:22:29;;;;;;;3.55;3.10;;;9.80;99.90;;;;;;6273758;22;20178;-70
2022/05/15 03:24:56;;;;;;;4.97;2.90;;;9.80;99.90;;;;;;6275035;22;20230;-70
2022/05/15 03:27:22;;;;;;;3.30;3.00;;;9.80;99.90;;;;;;6275542;22;20179;-70
2022/05/15 03:29:49;;;;;;;4.47;3.10;;;9.80;99.90;;;;;;6273996;22;20192;-70
2022/05/15 03:32:16;;;;;;;3.45;3.15;;;9.80;99.90;;;;;;6275081;22;20175;-70
2022/05/15 03:34:42;;;;;;;5.03;2.75;;;9.70;99.90;;;;;;6275429;22;20172;-70
2022/05/15 03:37:10;;;;;;;3.10;2.60;;;9.70;99.90;;;;;;6274707;22;20172;-70
2022/05/15 03:39:38;;;;;;;3.85;2.50;;;9.70;99.90;;;;;;6274400;22;20196;-71
2022/05/15 03:42:05;;;;;;;3.60;3.20;;;9.70;99.90;;;;;;6275042;22;20176;-70
2022/05/15 03:44:32;;;;;;;3.20;2.92;;;9.70;99.90;;;;;;6275377;22;20179;-70
2022/05/15 03:46:59;;;;;;;5.38;3.05;;;9.70;99.90;;;;;;6275284;22;20187;-70
2022/05/15 03:49:26;;;;;;;3.42;3.03;;;9.70;99.90;;;;;;6274294;22;20270;-70
2022/05/15 03:51:53;;;;;;;3.30;2.60;;;9.70;99.90;;;;;;6274919;22;20172;-70
2022/05/15 03:54:21;;;;;;;4.05;2.97;;;9.70;99.90;;;;;;6274995;22;20508;-69
2022/05/15 03:56:50;;;;;;;3.17;2.80;;;9.60;99.90;;;;;;6275041;22;20179;-70
2022/05/15 03:59:19;;;;;;;2.92;2.60;;;9.60;99.90;;;;;;6273983;22;20567;-70
2022/05/15 04:01:45;;;;;;;4.45;3.10;;;9.60;99.90;;;;;;6274753;22;20204;-70
2022/05/15 04:04:12;;;;;;;2.40;2.20;;;9.60;99.90;;;;;;6275279;22;20156;-71
2022/05/15 04:06:39;;;;;;;4.03;2.85;;;9.60;99.90;;;;;;6274225;22;20728;-71
2022/05/15 04:09:06;;;;;;;3.15;2.53;;;9.60;99.90;;;;;;6274230;22;20188;-71
2022/05/15 04:11:34;;;;;;;3.20;2.90;;;9.60;99.90;;;;;;6274791;22;20175;-70
2022/05/15 04:14:01;;;;;;;3.28;2.70;;;9.60;99.90;;;;;;6275129;22;20172;-71
2022/05/15 04:16:28;;;;;;;2.67;2.47;;;9.60;99.90;;;;;;6274792;22;20176;-71
2022/05/15 04:18:55;;;;;;;3.65;2.83;;;9.60;99.90;;;;;;6273978;22;20225;-71
2022/05/15 04:21:22;;;;;;;2.90;2.67;;;9.70;99.90;;;;;;6274668;22;20258;-71
2022/05/15 04:23:49;;;;;;;5.68;2.70;;;9.70;99.90;;;;;;6274616;22;20510;-70
2022/05/15 04:26:16;;;;;;;2.85;2.50;;;9.70;99.90;;;;;;6275022;22;20179;-70
2022/05/15 04:28:44;;;;;;;5.68;2.90;;;9.80;99.90;;;;;;6273630;22;20676;-70
2022/05/15 04:31:10;;;;;;;4.25;2.78;;;9.80;99.90;;;;;;6275097;22;20431;-70
2022/05/15 04:33:37;;;;;;;4.15;3.00;;;9.90;99.90;;;;;;6274374;22;20633;-70
2022/05/15 04:36:05;;;;;;;2.90;2.70;;;10.00;99.90;;;;;;6274173;22;20171;-71
2022/05/15 04:38:31;;;;;;;3.15;2.55;;;10.10;99.90;;;;;;6274120;22;20278;-70
2022/05/15 04:40:58;;;;;;;2.90;2.60;;;10.10;99.90;;;;;;6274871;22;20639;-70
2022/05/15 04:43:25;;;;;;;3.00;2.20;;;10.20;99.90;;;;;;6275685;22;20179;-70
2022/05/15 04:45:53;;;;;;;2.83;2.33;;;10.30;99.90;;;;;;6266744;22;20199;-69
2022/05/15 04:48:20;;;;;;;3.50;2.70;;;10.40;99.90;;;;;;6259031;22;20298;-72
2022/05/15 04:50:46;;;;;;;2.80;2.50;;;10.40;99.90;;;;;;6274379;22;20633;-73
2022/05/15 04:53:13;;;;;;;3.85;3.00;;;10.50;99.90;;;;;;6274343;22;20237;-72
2022/05/15 04:55:40;;;;;;;4.22;2.55;;;10.60;99.90;;;;;;6274115;22;20267;-71
2022/05/15 04:58:06;;;;;;;2.80;2.60;;;10.60;99.90;;;;;;6272941;22;20595;-72
2022/05/15 05:00:33;;;;;;;4.22;2.80;;;10.70;99.90;;;;;;6284184;22;20203;-72
2022/05/15 05:03:01;;;;;;;3.15;2.35;;;10.80;99.90;;;;;;6273958;22;20187;-72
2022/05/15 05:05:28;;;;;;;2.50;2.30;;;10.90;99.90;;;;;;6283859;22;20179;-71
2022/05/15 05:07:55;;;;;;;2.97;2.50;;;10.90;99.90;;;;;;6274029;22;20187;-72
2022/05/15 05:10:22;;;;;;;3.03;2.53;;;11.00;99.90;;;;;;6273571;22;20175;-71
2022/05/15 05:12:49;;;;;;;3.07;2.33;;;11.10;99.90;;;;;;6273932;22;20176;-71
2022/05/15 05:15:16;;;;;;;2.17;1.97;;;11.20;99.90;;;;;;6274193;22;20422;-72
2022/05/15 05:17:43;;;;;;;3.33;2.80;;;11.30;99.90;;;;;;6274143;22;20482;-72
2022/05/15 05:20:13;;;;;;;2.77;2.57;;;11.40;99.90;;;;;;6273459;22;20474;-72
2022/05/15 05:22:40;;;;;;;3.30;2.53;;;11.50;99.90;;;;;;6283468;22;20911;-72
2022/05/15 05:25:07;;;;;;;2.83;2.50;;;11.50;99.90;;;;;;6272903;22;20422;-73
2022/05/15 05:27:35;;;;;;;6.73;2.73;;;11.60;99.90;;;;;;6273200;22;20724;-71
2022/05/15 05:30:02;;;;;;;5.53;2.20;;;11.70;99.90;;;;;;6283339;22;20430;-71
2022/05/15 05:32:29;;;;;;;3.35;3.05;;;11.80;99.90;;;;;;6273765;22;20760;-71
2022/05/15 05:34:56;;;;;;;4.07;2.73;;;12.00;99.90;;;;;;6274333;22;20183;-72
2022/05/15 05:37:24;;;;;;;2.83;2.60;;;12.10;99.90;;;;;;6273828;22;20418;-71
2022/05/15 05:39:50;;;;;;;2.92;2.72;;;12.20;99.90;;;;;;6273016;22;20450;-72
2022/05/15 05:42:17;;;;;;;2.93;2.50;;;12.40;99.90;;;;;;6273571;22;20175;-71
2022/05/15 05:44:44;;;;;;;2.70;2.50;;;12.50;99.90;;;;;;6273809;22;20426;-72
2022/05/15 05:47:11;;;;;;;5.33;3.10;;;12.60;99.90;;;;;;6273495;22;20414;-73
2022/05/15 05:49:38;;;;;;;2.67;2.47;;;12.70;99.90;;;;;;6272476;22;20532;-72
2022/05/15 05:52:05;;;;;;;3.80;2.97;;;12.80;99.90;;;;;;6274439;22;20422;-73
2022/05/15 05:54:33;;;;;;;3.30;3.00;;;13.00;99.90;;;;;;6274093;22;20418;-72
2022/05/15 05:57:00;;;;;;;3.13;2.80;;;13.10;99.90;;;;;;6274696;22;20422;-72
2022/05/15 05:59:27;;;;;;;4.63;3.00;;;13.30;99.90;;;;;;6282682;22;20465;-73
2022/05/15 06:01:54;;;;;;;5.93;3.13;;;13.40;99.90;;;;;;6273766;22;20505;-72
2022/05/15 06:07:05;;;;;;;4.73;3.20;;;13.80;99.90;;;;;;6273352;22;20159;-72
2022/05/15 06:09:33;;;;;;;3.83;3.10;;;14.00;99.90;;;;;;6272957;22;20457;-73
2022/05/15 06:12:00;;;;;;;4.17;3.63;;;14.10;99.90;;;;;;6274528;22;20418;-73
2022/05/15 06:14:27;;;;;;;4.07;3.67;;;14.30;99.90;;;;;;6273555;22;20418;-72
2022/05/15 06:16:53;;;;;;;4.27;3.47;;;14.40;99.90;;;;;;6273859;22;20530;-72
2022/05/15 06:19:20;;;;;;;4.03;3.63;;;14.50;99.90;;;;;;6272136;22;20450;-73
2022/05/15 06:21:47;;;;;;;3.60;3.30;;;14.70;99.90;;;;;;6273784;22;20751;-72
2022/05/15 06:24:13;;;;;;;4.50;3.13;;;14.80;99.90;;;;;;6273591;22;20426;-72
2022/05/15 06:26:41;;;;;;;3.70;3.30;;;15.00;99.90;;;;;;6273462;22;20449;-74
2022/05/15 06:29:08;;;;;;;3.90;3.40;;;15.10;99.90;;;;;;6272974;22;20438;-72
2022/05/15 06:31:35;;;;;;;3.90;3.07;;;15.20;99.90;;;;;;6273296;22;20419;-73
2022/05/15 06:34:02;;;;;;;4.33;3.07;;;15.30;99.90;;;;;;6273666;22;20418;-73
2022/05/15 06:36:28;;;;;;;5.50;3.10;;;15.40;99.90;;;;;;6273182;22;20418;-72
2022/05/15 06:38:55;;;;;;;3.93;2.83;;;15.50;99.90;;;;;;6272843;22;20442;-72
2022/05/15 06:41:22;;;;;;;4.37;2.70;;;15.60;99.90;;;;;;6273271;22;20425;-73
2022/05/15 06:43:50;;;;;;;5.10;2.50;;;15.80;99.90;;;;;;6273343;22;20504;-73
2022/05/15 06:46:17;;;;;;;3.00;2.70;;;15.90;99.90;;;;;;6273370;22;20425;-72
2022/05/15 06:48:44;;;;;;;3.63;2.90;;;16.00;99.90;;;;;;6272327;22;20446;-74
2022/05/15 06:51:14;;;;;;;3.53;2.50;;;16.10;99.90;;;;;;6273798;22;20418;-72
2022/05/15 06:53:41;;;;;;;2.90;2.20;;;16.20;99.90;;;;;;6273453;22;20423;-72
2022/05/15 06:58:53;;;;;;;4.17;2.40;;;16.40;99.90;;;;;;6272307;22;20502;-72
2022/05/15 07:01:20;;;;;;;3.93;2.70;;;16.60;99.90;;;;;;6273645;22;20418;-73
2022/05/15 07:03:46;;;;;;;2.30;2.07;;;16.70;99.90;;;;;;6273712;22;20418;-71
2022/05/15 07:06:15;;;;;;;5.40;3.27;;;16.70;99.90;;;;;;6273141;22;20752;-72
2022/05/15 07:08:41;;;;;;;3.90;2.60;;;16.90;99.90;;;;;;6282557;22;20509;-72
2022/05/15 07:11:10;;;;;;;3.30;2.73;;;17.00;99.90;;;;;;6273407;22;20415;-71
2022/05/15 07:13:36;;;;;;;3.27;2.43;;;17.00;99.90;;;;;;6273473;22;20417;-72
2022/05/15 07:16:05;;;;;;;4.93;2.70;;;17.10;99.90;;;;;;6283124;22;20476;-71
2022/05/15 07:18:32;;;;;;;3.77;2.50;;;17.20;99.90;;;;;;6272861;22;20749;-73
2022/05/15 07:20:59;;;;;;;3.80;2.73;;;17.30;99.90;;;;;;6273421;22;20525;-72
2022/05/15 07:23:27;;;;;;;2.40;2.20;;;17.30;99.90;;;;;;6273045;22;20931;-73
2022/05/15 07:25:54;;;;;;;4.00;2.40;;;17.40;99.90;;;;;;6273424;22;20418;-71
2022/05/15 07:28:22;;;;;;;3.00;2.40;;;17.40;99.90;;;;;;6271926;22;20434;-72
2022/05/15 07:30:50;;;;;;;2.63;2.43;;;17.60;99.90;;;;;;6273274;22;20786;-72
2022/05/15 07:33:20;;;;;;;4.33;2.77;;;17.70;99.90;;;;;;6272558;22;20410;-73
2022/05/15 07:35:46;;;;;;;2.97;2.73;;;17.80;99.90;;;;;;6283578;22;20783;-71
2022/05/15 07:38:13;;;;;;;3.13;2.40;;;18.00;99.90;;;;;;6272074;22;20438;-72
2022/05/15 07:40:40;;;;;;;3.50;2.20;;;18.10;99.90;;;;;;6272795;22;20461;-71
2022/05/15 07:43:08;;;;;;;3.97;2.23;;;18.20;99.60;;;;;;6272926;22;20418;-72
2022/05/15 07:45:35;;;;;;;2.80;2.37;;;18.30;99.40;;;;;;6272041;22;20418;-72
2022/05/15 07:48:03;;;;;;;2.20;2.00;;;18.50;99.90;;;;;;6281801;22;20438;-72
2022/05/15 07:50:31;;;;;;;2.40;2.17;;;18.60;98.60;;;;;;6266538;22;20395;-71
2022/05/15 07:52:59;;;;;;;2.57;1.87;;;18.60;98.40;;;;;;6268054;22;20934;-74
2022/05/15 07:55:26;;;;;;;3.90;2.20;;;18.70;98.10;;;;;;6268599;22;20439;-72
2022/05/15 07:57:53;;;;;;;3.33;2.30;;;18.80;98.00;;;;;;6268107;22;20414;-73
2022/05/15 08:00:21;;;;;;;4.87;2.30;;;18.90;98.40;;;;;;6268615;22;20503;-72
2022/05/15 08:02:48;;;;;;;2.90;2.50;;;18.90;98.20;;;;;;6279311;22;20414;-72
2022/05/15 08:08:05;;;;;;;3.07;2.10;;;19.20;98.10;;;;;;6268556;22;20386;-71
2022/05/15 08:10:35;;;;;;;7.73;2.47;;;19.30;98.10;;;;;;6269496;22;20399;-70
2022/05/15 08:13:03;;;;;;;3.77;2.60;;;19.40;98.20;;;;;;6270135;22;20425;-70
2022/05/15 08:15:30;;;;;;;3.03;2.00;;;19.60;97.80;;;;;;6269815;22;20472;-73
2022/05/15 08:23:33;;;;;;;3.20;2.40;;;19.70;97.10;;;;;;6270523;22;20512;-73
2022/05/15 08:23:40;;;;;;;2.10;1.90;;;20.10;98.60;;;;;;6269100;22;21125;-72
2022/05/15 08:26:07;;;;;;;3.60;2.43;;;20.20;96.40;;;;;;6270299;22;20475;-71
2022/05/15 08:28:35;;;;;;;4.57;2.40;;;20.30;96.40;;;;;;6269984;22;20457;-72
2022/05/15 08:31:05;;;;;;;2.97;2.50;;;20.40;96.90;;;;;;6270699;22;20394;-74
2022/05/15 08:33:33;;;;;;;2.60;2.07;;;20.60;97.50;;;;;;6268929;22;20461;-72
2022/05/15 08:36:01;;;;;;;7.90;2.23;;;20.80;97.00;;;;;;6270714;22;20890;-72
2022/05/15 08:38:28;;;;;;;5.87;2.63;;;20.90;95.80;;;;;;6279494;22;20430;-72
2022/05/15 08:41:03;;;;;;;3.87;2.10;;;20.90;94.90;;;;;;6270260;22;20434;-72
2022/05/15 08:43:42;;;;;;;4.03;2.20;;;21.00;96.50;;;;;;6270378;22;20402;-71
2022/05/15 08:46:24;;;;;;;2.73;2.10;;;21.10;96.60;;;;;;6269778;22;20491;-72
2022/05/15 08:50:12;;;;;;;3.47;2.43;;;21.30;96.30;;;;;;5165080;27;20578;-70
2022/05/15 08:52:45;;;;;;;2.40;2.20;;;21.50;95.40;;;;;;5145353;27;20469;-70
2022/05/15 08:55:19;;;;;;;8.13;3.50;;;21.70;95.50;;;;;;5145902;27;20447;-70
2022/05/15 08:57:51;;;;;;;5.77;2.40;;;22.00;94.30;;;;;;5146025;27;20455;-71
2022/05/15 09:00:22;;;;;;;3.53;2.07;;;22.10;93.60;;;;;;5146277;27;20550;-70
2022/05/15 09:02:49;;;;;;;5.13;2.40;;;22.20;94.00;;;;;;5146283;27;20799;-70
2022/05/15 09:05:18;;;;;;;3.13;2.30;;;22.40;95.50;;;;;;5146826;27;20451;-71
2022/05/15 09:07:54;;;;;;;4.10;1.90;;;22.60;93.50;;;;;;5147056;27;20455;-70
2022/05/15 09:10:30;;;;;;;3.30;1.90;;;22.70;93.00;;;;;;5143089;27;20892;-70
2022/05/15 09:13:04;;;;;;;4.03;2.00;;;22.90;93.90;;;;;;5145833;27;20454;-71
2022/05/15 09:15:32;;;;;;;2.33;2.10;;;23.40;94.30;;;;;;5146613;27;20489;-70
2022/05/15 09:18:03;;;;;;;3.30;2.13;;;23.80;93.30;;;;;;5146527;27;20455;-73
2022/05/15 09:20:40;;;;;;;3.13;2.10;;;24.20;94.60;;;;;;5146349;27;20501;-70
2022/05/15 09:23:21;;;;;;;4.07;2.40;;;24.60;93.30;;;;;;5148430;27;20460;-72
2022/05/15 09:25:54;;;;;;;3.30;2.60;;;25.10;92.20;;;;;;5148386;27;20451;-71
2022/05/15 09:28:21;;;;;;;3.50;2.20;;;25.50;91.60;;;;;;5147330;27;20494;-71
2022/05/15 09:30:51;;;;;;;3.50;2.30;;;25.70;90.20;;;;;;5148480;27;20582;-71
2022/05/15 09:33:29;;;;;;;3.87;2.30;;;25.90;90.60;;;;;;5147999;27;20459;-71
2022/05/15 09:36:24;;;;;;;4.57;2.53;;;26.20;91.50;;;;;;5148251;27;20989;-70
2022/05/15 09:39:07;;;;;;;3.77;2.47;;;26.60;90.60;;;;;;5147502;27;20479;-71
2022/05/15 09:44:25;;;;;;;2.80;1.87;;;26.90;89.90;;;;;;5148081;27;20858;-73
2022/05/15 09:46:58;;;;;;;3.07;2.50;;;27.20;91.10;;;;;;5147667;27;20455;-70
2022/05/15 09:49:29;;;;;;;2.50;2.20;;;27.10;86.00;;;;;;5145514;27;20984;-71
2022/05/15 09:52:00;;;;;;;2.40;2.03;;;27.00;86.40;;;;;;5147283;27;21004;-71
2022/05/15 09:54:32;;;;;;;4.90;2.23;;;27.10;91.80;;;;;;5146843;27;20455;-70
2022/05/15 09:57:15;;;;;;;2.50;1.93;;;27.40;87.70;;;;;;5147230;27;20447;-71
2022/05/15 09:59:42;;;;;;;2.83;2.30;;;27.50;87.70;;;;;;5141477;27;20472;-70
2022/05/15 10:02:18;;;;;;;2.53;2.23;;;27.50;90.40;;;;;;5131377;27;20954;-71
2022/05/15 10:04:49;;;;;;;3.28;2.00;;;27.40;85.50;;;;;;5133278;27;20453;-71
2022/05/15 10:07:31;;;;;;;5.27;2.50;;;27.40;82.60;;;;;;5130008;27;20202;-70
2022/05/15 10:10:16;;;;;;;4.30;2.47;;;27.30;86.80;;;;;;5129465;27;20565;-70
2022/05/15 10:12:45;;;;;;;2.33;1.87;;;27.40;86.20;;;;;;5129299;27;20483;-71
2022/05/15 10:15:14;;;;;;;3.63;2.20;;;27.60;86.80;;;;;;5123225;27;20448;-71
2022/05/15 10:17:52;;;;;;;4.33;2.03;;;27.50;83.70;;;;;;5128369;27;21105;-71
2022/05/15 10:20:23;;;;;;;2.63;2.20;;;27.40;82.40;;;;;;5129719;27;20447;-71
2022/05/15 10:22:58;;;;;;;4.90;3.00;;;27.50;88.20;;;;;;5129641;27;20470;-72
2022/05/15 10:25:37;;;;;;;4.50;2.40;;;27.60;89.70;;;;;;5130214;27;20451;-71
2022/05/15 10:28:10;;;;;;;5.03;2.33;;;28.00;87.40;;;;;;5127671;27;20550;-71
2022/05/15 10:30:51;;;;;;;2.53;1.90;;;28.00;85.00;;;;;;5129369;27;20460;-71
2022/05/15 10:33:20;;;;;;;3.00;2.03;;;28.10;86.20;;;;;;5126676;27;20462;-73
2022/05/15 10:35:52;;;;;;;4.43;2.03;;;28.10;85.50;;;;;;5129718;27;20474;-71
2022/05/15 10:38:35;;;;;;;3.27;1.70;;;28.10;86.20;;;;;;5130730;27;20474;-71
2022/05/15 10:41:15;;;;;;;3.50;2.23;;;28.40;85.70;;;;;;5130284;27;20453;-71
2022/05/15 10:44:00;;;;;;;3.63;2.30;;;28.50;86.30;;;;;;5130890;27;20884;-70
2022/05/15 10:46:35;;;;;;;4.07;2.50;;;28.80;82.80;;;;;;5128981;27;20854;-71
2022/05/15 10:49:18;;;;;;;3.03;2.23;;;28.70;81.80;;;;;;5131610;27;20486;-70
2022/05/15 10:51:53;;;;;;;2.63;2.00;;;28.80;80.80;;;;;;5132381;27;20822;-71
2022/05/15 10:57:29;;;;;;;3.03;2.37;;;29.10;80.80;;;;;;5132558;27;20466;-73
2022/05/15 11:00:12;;;;;;;3.00;2.07;;;29.50;81.70;;;;;;5131450;27;21086;-71
2022/05/15 11:03:20;;;;;;;5.37;2.30;;;29.40;75.40;;;;;;5132059;27;20473;-71
2022/05/15 11:05:59;;;;;;;2.47;2.03;;;29.10;76.00;;;;;;5131690;27;20948;-71
2022/05/15 11:08:38;;;;;;;2.23;2.03;;;29.30;78.80;;;;;;5131126;27;20474;-71
2022/05/15 11:11:16;;;;;;;2.50;1.93;;;29.20;79.00;;;;;;5131646;27;20483;-71
2022/05/15 11:13:52;;;;;;;2.23;2.03;;;29.00;80.50;;;;;;5130877;27;20645;-73
2022/05/15 11:16:32;;;;;;;2.17;1.97;;;28.90;77.10;;;;;;5111027;28;20530;-72
2022/05/15 11:19:15;;;;;;;3.53;2.80;;;28.80;79.30;;;;;;5111071;28;20492;-70
2022/05/15 11:21:52;;;;;;;2.83;2.10;;;29.00;79.30;;;;;;5111619;28;20468;-71
2022/05/15 11:24:30;;;;;;;3.10;2.13;;;29.40;82.20;;;;;;5110395;28;20470;-70
2022/05/15 11:27:05;;;;;;;3.93;2.20;;;29.70;78.70;;;;;;5111586;28;20468;-71
2022/05/15 11:29:40;;;;;;;3.37;2.00;;;29.60;76.60;;;;;;5110150;28;20495;-72
2022/05/15 11:32:28;;;;;;;4.83;1.83;;;29.40;75.90;;;;;;5111339;28;20458;-71
2022/05/15 11:35:05;;;;;;;3.07;1.97;;;29.10;79.40;;;;;;5127539;27;20446;-71
2022/05/15 11:37:44;;;;;;;2.23;2.03;;;29.10;79.90;;;;;;5130552;27;20465;-72
2022/05/15 11:40:28;;;;;;;3.83;2.20;;;29.30;79.90;;;;;;5124466;27;20488;-71
2022/05/15 11:42:57;;;;;;;3.50;2.30;;;29.70;79.90;;;;;;5127514;27;20462;-68
2022/05/15 11:45:37;;;;;;;3.07;2.17;;;29.90;79.30;;;;;;5128976;27;20816;-68
2022/05/15 11:48:21;;;;;;;3.47;2.17;;;29.90;77.10;;;;;;5135482;22;20472;-74
2022/05/15 11:50:57;;;;;;;2.83;2.20;;;29.70;77.00;;;;;;5046713;28;20482;-71
2022/05/15 11:53:30;;;;;;;2.50;1.73;;;29.60;77.10;;;;;;5048720;28;20457;-72
2022/05/15 11:55:59;;;;;;;4.10;2.37;;;29.90;78.80;;;;;;5048720;28;20465;-72
2022/05/15 11:58:36;;;;;;;2.40;2.20;;;29.90;76.90;;;;;;5048344;28;20980;-72
2022/05/15 12:01:12;;;;;;;3.60;2.40;;;30.00;79.50;;;;;;5026565;28;20542;-72
2022/05/15 12:03:52;;;;;;;2.70;2.30;;;30.10;78.80;;;;;;5029313;28;20511;-72
2022/05/15 12:06:23;;;;;;;2.90;2.20;;;30.10;78.50;;;;;;5028263;28;20454;-72
2022/05/15 12:09:22;;;;;;;2.20;1.97;;;30.10;77.10;;;;;;5028499;28;20483;-72
2022/05/15 12:11:51;;;;;;;3.60;2.33;;;30.30;78.80;;;;;;5028237;28;20482;-72
2022/05/15 12:14:34;;;;;;;3.00;1.83;;;30.30;81.70;;;;;;5027688;28;20498;-72
2022/05/15 12:17:04;;;;;;;1.97;1.80;;;30.40;78.20;;;;;;5027534;28;20459;-72
2022/05/15 12:19:33;;;;;;;3.17;2.23;;;30.10;76.40;;;;;;5024983;28;20470;-72
2022/05/15 12:22:03;;;;;;;2.93;2.20;;;29.90;76.60;;;;;;5545532;22;20505;-73
2022/05/15 12:24:32;;;;;;;2.20;2.00;;;29.60;73.90;;;;;;5081236;28;20464;-73
2022/05/15 12:27:11;;;;;;;2.80;2.30;;;29.20;76.10;;;;;;5087043;28;20463;-73
2022/05/15 12:29:59;;;;;;;2.33;1.90;;;29.20;80.10;;;;;;5085748;28;20485;-73
2022/05/15 12:32:32;;;;;;;3.80;2.10;;;29.20;76.10;;;;;;5086911;28;20475;-72
2022/05/15 12:34:59;;;;;;;3.40;1.97;;;28.90;77.60;;;;;;5067368;28;20997;-72
2022/05/15 12:37:30;;;;;;;2.43;2.23;;;29.00;79.00;;;;;;5066282;28;20468;-73
2022/05/15 12:39:59;;;;;;;3.70;2.30;;;29.40;81.60;;;;;;5066903;28;20466;-72
2022/05/15 12:42:41;;;;;;;3.43;2.27;;;29.60;77.60;;;;;;5066322;28;21099;-72
2022/05/15 12:45:13;;;;;;;2.30;1.93;;;29.60;78.20;;;;;;5066979;28;20523;-73
2022/05/15 12:47:41;;;;;;;2.00;1.90;;;29.50;75.90;;;;;;5066716;28;20484;-72
2022/05/15 12:50:15;;;;;;;4.10;2.07;;;29.50;77.30;;;;;;5066330;28;21030;-71
2022/05/15 12:52:42;;;;;;;2.70;2.13;;;29.80;80.90;;;;;;5065604;28;20488;-71
2022/05/15 12:55:12;;;;;;;2.30;2.10;;;30.00;79.30;;;;;;5066796;28;20494;-71
2022/05/15 12:57:47;;;;;;;5.23;2.57;;;30.00;76.20;;;;;;5066213;28;20472;-70
2022/05/15 13:00:19;;;;;;;2.67;2.00;;;29.90;78.30;;;;;;5066254;28;20475;-70
2022/05/15 13:02:47;;;;;;;4.13;2.33;;;30.00;77.40;;;;;;5066205;28;20484;-70
2022/05/15 13:05:23;;;;;;;2.50;1.80;;;29.80;75.50;;;;;;5066591;28;21031;-71
2022/05/15 13:07:56;;;;;;;3.00;1.87;;;30.00;76.90;;;;;;5066392;28;20469;-70
2022/05/15 13:10:24;;;;;;;3.07;1.83;;;30.10;77.60;;;;;;5066497;28;20485;-71
2022/05/15 13:12:53;;;;;;;2.07;1.97;;;30.30;78.30;;;;;;5066846;28;20475;-70
2022/05/15 13:15:25;;;;;;;3.13;2.27;;;30.40;76.00;;;;;;5066250;28;20467;-70
2022/05/15 13:17:53;;;;;;;3.90;3.60;;;30.00;74.70;;;;;;5072963;28;20580;-72
2022/05/15 13:20:21;;;;;;;4.20;2.20;;;29.50;76.70;;;;;;5085959;28;20465;-72
2022/05/15 13:22:49;;;;;;;3.10;2.47;;;29.50;77.90;;;;;;5086237;28;20487;-73
2022/05/15 13:25:23;;;;;;;3.70;2.07;;;29.70;79.70;;;;;;5078932;28;20464;-70